createdAt,value
2018-11-27T15:28:39.731Z,23.20
2018-11-27T15:33:43.143Z,23.75
2018-11-27T15:38:46.502Z,24.25
2018-11-27T15:43:49.828Z,25.20
2018-11-27T15:48:54.380Z,23.00
2018-11-27T15:53:58.080Z,22.00
2018-11-27T15:59:01.577Z,20.60
2018-11-27T16:04:05.660Z,22.60
2018-11-27T16:09:10.710Z,24.20
2018-11-27T16:14:14.255Z,24.25
2018-11-27T16:19:17.573Z,20.50
2018-11-27T16:24:21.089Z,24.00
2018-11-27T16:29:24.464Z,25.75
2018-11-27T16:34:27.939Z,21.00
2018-11-27T16:39:31.360Z,20.75
2018-11-27T16:44:34.716Z,20.00
2018-11-27T16:49:38.137Z,24.20
2018-11-27T16:54:41.481Z,18.00
2018-11-27T16:59:45.606Z,21.00
2018-11-27T17:04:49.244Z,22.00
2018-11-27T17:09:52.580Z,19.00
2018-11-27T17:14:56.138Z,21.20
2018-11-27T17:19:59.463Z,21.75
2018-11-27T17:25:03.064Z,15.00
2018-11-27T17:30:16.027Z,21.40
2018-11-27T18:03:27.513Z,21.60
2018-11-27T18:08:30.838Z,18.80
2018-11-27T18:13:34.607Z,17.80
2018-11-27T18:18:37.968Z,22.00
2018-11-27T18:23:41.316Z,18.00
2018-11-27T18:28:44.650Z,18.20
2018-11-27T18:33:48.035Z,16.40
2018-11-27T18:38:51.574Z,15.60
2018-11-27T18:43:54.955Z,16.25
2018-11-27T18:48:58.274Z,18.00
2018-11-27T18:54:01.647Z,15.00
2018-11-27T18:59:05.000Z,16.25
2018-11-27T19:04:08.390Z,18.00
2018-11-27T19:09:11.784Z,15.60
2018-11-27T19:14:15.392Z,20.75
2018-11-27T19:47:28.014Z,15.80
2018-11-27T19:52:31.467Z,17.00
2018-11-27T19:57:35.038Z,17.60
2018-11-27T20:02:39.815Z,17.50
2018-11-27T20:07:43.225Z,17.25
2018-11-27T20:12:46.572Z,14.25
2018-11-27T20:17:50.718Z,17.40
2018-11-27T20:22:54.979Z,17.00
2018-11-27T20:27:58.354Z,14.75
2018-11-27T20:33:02.960Z,15.20
2018-11-27T20:38:07.990Z,14.25
2018-11-27T20:43:11.364Z,18.75
2018-11-27T20:48:17.051Z,18.80
2018-11-27T20:53:20.376Z,14.50
2018-11-27T20:58:23.814Z,16.80
2018-11-27T21:03:27.175Z,10.80
2018-11-27T21:08:31.057Z,15.60
2018-11-27T21:13:34.747Z,14.00
2018-11-27T21:18:41.163Z,17.25
2018-11-27T21:23:44.778Z,15.20
2018-11-27T21:28:48.400Z,16.60
2018-11-27T21:33:51.989Z,13.60
2018-11-27T21:38:55.692Z,15.00
2018-11-27T21:43:59.463Z,14.75
2018-11-27T21:49:03.208Z,15.00
2018-11-27T21:54:09.181Z,14.50
2018-11-27T21:59:13.349Z,15.80
2018-11-27T22:04:18.202Z,14.75
2018-11-27T22:09:22.185Z,10.40
2018-11-27T22:14:26.188Z,15.25
2018-11-27T22:19:29.831Z,13.00
2018-11-27T22:24:33.506Z,13.75
2018-11-27T22:29:37.435Z,14.20
2018-11-27T22:34:41.107Z,11.60
2018-11-27T22:39:44.758Z,13.25
2018-11-27T22:44:48.526Z,14.00
2018-11-27T22:49:52.144Z,14.20
2018-11-27T22:54:55.744Z,13.50
2018-11-27T22:59:59.535Z,18.25
2018-11-27T23:05:05.959Z,13.40
2018-11-27T23:10:10.329Z,12.40
2018-11-27T23:15:15.742Z,12.25
2018-11-27T23:20:19.911Z,14.20
2018-11-27T23:25:24.206Z,11.60
2018-11-27T23:30:28.020Z,9.80
2018-11-27T23:35:31.844Z,12.00
2018-11-27T23:40:35.651Z,14.75
2018-11-27T23:45:39.688Z,12.75
2018-11-27T23:50:46.903Z,11.75
2018-11-27T23:55:51.308Z,11.25
